createdAt,value
2022-10-10T00:02:35.636Z,6.68
2022-10-10T00:05:18.656Z,4.82
2022-10-10T00:07:52.606Z,6.70
2022-10-10T00:10:34.210Z,7.07
2022-10-10T00:13:11.390Z,6.50
2022-10-10T00:15:51.942Z,8.63
2022-10-10T00:21:19.022Z,7.07
2022-10-10T00:24:00.952Z,6.80
2022-10-10T00:26:38.852Z,6.57
2022-10-10T00:29:12.124Z,6.25
2022-10-10T00:31:49.516Z,7.57
2022-10-10T00:34:25.256Z,6.30
2022-10-10T00:37:06.284Z,6.32
2022-10-10T00:39:45.665Z,10.48
2022-10-10T00:42:28.536Z,7.55
2022-10-10T00:45:35.495Z,6.50
2022-10-10T00:48:15.686Z,6.22
2022-10-10T00:50:52.404Z,6.35
2022-10-10T00:53:43.050Z,8.63
2022-10-10T00:56:44.425Z,8.25
2022-10-10T00:59:13.704Z,8.75
2022-10-10T01:01:58.355Z,9.00
2022-10-10T01:04:54.011Z,9.02
2022-10-10T01:07:31.822Z,8.10
2022-10-10T01:10:19.027Z,8.20
2022-10-10T01:13:07.824Z,8.73
2022-10-10T01:16:01.345Z,7.72
2022-10-10T01:19:05.833Z,8.15
2022-10-10T01:21:47.479Z,7.45
2022-10-10T01:24:58.778Z,6.72
2022-10-10T01:28:02.175Z,7.00
2022-10-10T01:30:55.106Z,8.48
2022-10-10T01:33:42.423Z,7.68
2022-10-10T01:36:31.813Z,6.85
2022-10-10T01:39:16.761Z,9.93
2022-10-10T01:41:59.930Z,5.43
2022-10-10T01:44:29.438Z,6.25
2022-10-10T01:47:08.629Z,8.07
2022-10-10T01:49:47.975Z,7.97
2022-10-10T01:52:33.342Z,5.97
2022-10-10T01:55:23.479Z,7.95
2022-10-10T01:58:27.260Z,5.95
2022-10-10T02:01:17.973Z,7.43
2022-10-10T02:04:16.826Z,4.95
2022-10-10T02:06:59.610Z,7.30
2022-10-10T02:09:47.845Z,11.07
2022-10-10T02:12:32.144Z,6.85
2022-10-10T02:15:16.747Z,5.40
2022-10-10T02:17:59.538Z,6.55
2022-10-10T02:23:20.297Z,5.32
2022-10-10T02:26:03.395Z,8.48
2022-10-10T02:28:45.010Z,6.20
2022-10-10T02:34:10.852Z,5.65
2022-10-10T02:37:01.031Z,5.72
2022-10-10T02:39:38.801Z,6.07
2022-10-10T02:42:12.618Z,6.32
2022-10-10T02:44:49.617Z,6.30
2022-10-10T02:47:19.585Z,7.00
2022-10-10T02:50:04.788Z,5.60
2022-10-10T02:52:58.968Z,7.10
2022-10-10T02:55:42.682Z,7.85
2022-10-10T02:58:26.153Z,6.60
2022-10-10T03:03:46.864Z,6.88
2022-10-10T03:06:25.410Z,7.90
2022-10-10T03:09:25.527Z,8.77
2022-10-10T03:12:09.265Z,7.78
2022-10-10T03:14:49.304Z,5.88
2022-10-10T03:17:29.294Z,7.50
2022-10-10T03:20:21.464Z,9.10
2022-10-10T03:23:01.149Z,9.45
2022-10-10T03:25:49.656Z,7.30
2022-10-10T03:28:33.330Z,7.90
2022-10-10T03:31:14.632Z,7.63
2022-10-10T03:33:58.142Z,8.63
2022-10-10T03:36:37.774Z,8.77
2022-10-10T03:39:15.464Z,8.60
2022-10-10T03:41:50.698Z,10.23
2022-10-10T03:44:44.955Z,9.25
2022-10-10T03:47:21.668Z,6.75
2022-10-10T03:50:00.878Z,8.00
2022-10-10T03:52:52.694Z,7.40
2022-10-10T03:55:26.340Z,8.10
2022-10-10T03:58:10.097Z,9.07
2022-10-10T04:00:58.202Z,8.82
2022-10-10T04:03:41.588Z,7.70
2022-10-10T04:08:46.347Z,9.35
2022-10-10T04:11:29.455Z,9.75
2022-10-10T04:14:18.914Z,8.57
2022-10-10T04:17:03.284Z,8.23
2022-10-10T04:19:35.136Z,9.23
2022-10-10T04:22:29.339Z,7.97
2022-10-10T04:25:12.640Z,8.55
2022-10-10T04:30:28.799Z,9.05
2022-10-10T04:33:07.519Z,9.55
2022-10-10T04:35:40.956Z,10.10
2022-10-10T04:38:18.574Z,10.75
2022-10-10T04:40:53.401Z,8.63
2022-10-10T04:43:38.351Z,8.27
2022-10-10T04:46:22.616Z,6.07
2022-10-10T04:49:05.454Z,11.10
2022-10-10T04:51:54.691Z,9.32
2022-10-10T04:54:29.485Z,11.88
2022-10-10T04:57:04.297Z,8.30
2022-10-10T04:59:57.731Z,9.40
2022-10-10T05:02:45.470Z,9.48
2022-10-10T05:05:29.965Z,8.80
2022-10-10T05:08:14.697Z,10.93
2022-10-10T05:10:52.136Z,10.32
2022-10-10T05:13:34.014Z,10.23
2022-10-10T05:16:20.938Z,10.75
2022-10-10T05:18:56.509Z,10.13
2022-10-10T05:21:35.208Z,12.93
2022-10-10T05:24:15.699Z,11.30
2022-10-10T05:26:58.376Z,11.57
2022-10-10T05:29:33.570Z,13.10
2022-10-10T05:32:10.613Z,13.07
2022-10-10T05:34:58.285Z,10.43
2022-10-10T05:37:45.018Z,12.52
2022-10-10T05:40:22.347Z,13.13
2022-10-10T05:42:54.726Z,12.40
2022-10-10T05:45:26.584Z,13.82
2022-10-10T05:48:01.073Z,11.43
2022-10-10T05:50:41.880Z,13.88
2022-10-10T05:53:11.895Z,12.65
2022-10-10T05:55:42.024Z,12.15
2022-10-10T05:58:18.788Z,12.05
2022-10-10T06:00:49.724Z,13.48
2022-10-10T06:03:22.915Z,11.02
2022-10-10T06:08:26.409Z,10.13
2022-10-10T06:10:57.116Z,10.52
2022-10-10T06:13:32.847Z,10.57
2022-10-10T06:16:01.539Z,11.73
2022-10-10T06:18:31.812Z,9.93
2022-10-10T06:21:06.473Z,12.63
2022-10-10T06:23:40.756Z,13.73
2022-10-10T06:26:11.159Z,10.27
2022-10-10T06:28:39.793Z,9.48
2022-10-10T06:31:13.642Z,9.45
2022-10-10T06:33:46.434Z,10.02
2022-10-10T06:36:17.449Z,11.95
2022-10-10T06:38:55.955Z,14.35
2022-10-10T06:41:25.185Z,11.27
2022-10-10T06:43:57.159Z,11.93
2022-10-10T06:46:27.049Z,11.20
2022-10-10T06:48:57.710Z,10.30
2022-10-10T06:51:37.273Z,10.77
2022-10-10T06:54:14.926Z,9.25
2022-10-10T06:56:49.366Z,8.32
2022-10-10T06:59:19.042Z,11.32
2022-10-10T07:01:58.220Z,9.85
2022-10-10T07:04:31.748Z,10.48
2022-10-10T07:07:03.722Z,8.70
2022-10-10T07:09:32.523Z,9.57
2022-10-10T07:12:03.797Z,11.10
2022-10-10T07:14:59.370Z,9.60
2022-10-10T07:17:27.988Z,10.20
2022-10-10T07:20:01.035Z,8.20
2022-10-10T07:25:12.639Z,10.48
2022-10-10T07:27:42.911Z,9.48
2022-10-10T07:30:15.223Z,7.60
2022-10-10T07:32:45.239Z,12.73
2022-10-10T07:35:14.540Z,10.20
2022-10-10T07:37:45.322Z,10.82
2022-10-10T07:40:15.347Z,9.30
2022-10-10T07:42:44.296Z,10.35
2022-10-10T07:45:16.875Z,11.48
2022-10-10T07:47:48.233Z,12.40
2022-10-10T07:50:18.524Z,9.95
2022-10-10T07:52:50.105Z,10.82
2022-10-10T07:55:44.863Z,10.02
2022-10-10T07:58:21.538Z,8.70
2022-10-10T08:00:50.856Z,11.43
2022-10-10T08:03:21.503Z,12.38
2022-10-10T08:05:53.800Z,10.90
2022-10-10T08:08:27.363Z,9.60
2022-10-10T08:11:01.594Z,11.85
2022-10-10T08:13:35.312Z,10.43
2022-10-10T08:16:06.651Z,8.25
2022-10-10T08:18:35.301Z,10.35
2022-10-10T08:21:12.186Z,9.55
2022-10-10T08:23:43.629Z,11.85
2022-10-10T08:26:15.935Z,9.13
2022-10-10T08:28:48.841Z,9.90
2022-10-10T08:34:03.685Z,11.55
2022-10-10T08:36:36.675Z,10.35
2022-10-10T08:39:11.565Z,14.10
2022-10-10T08:41:49.702Z,11.93
2022-10-10T08:44:31.686Z,13.98
2022-10-10T08:47:05.491Z,8.85
2022-10-10T08:49:53.622Z,9.70
2022-10-10T08:52:40.825Z,9.80
2022-10-10T08:55:22.973Z,9.82
2022-10-10T08:57:55.369Z,9.02
2022-10-10T09:00:33.187Z,8.57
2022-10-10T09:03:04.776Z,10.63
2022-10-10T09:05:51.618Z,10.98
2022-10-10T09:08:58.266Z,9.38
2022-10-10T09:11:52.402Z,9.38
2022-10-10T09:14:40.816Z,10.77
2022-10-10T09:17:24.599Z,8.15
2022-10-10T09:22:37.501Z,9.52
2022-10-10T09:25:18.676Z,9.10
2022-10-10T09:28:01.995Z,9.45
2022-10-10T09:30:38.604Z,9.65
2022-10-10T09:33:27.101Z,9.35
2022-10-10T09:36:08.678Z,8.00
2022-10-10T09:38:42.947Z,9.15
2022-10-10T09:41:19.528Z,7.45
2022-10-10T09:43:57.385Z,7.50
2022-10-10T09:46:27.666Z,7.78
2022-10-10T09:48:56.691Z,8.52
2022-10-10T09:51:31.054Z,8.35
2022-10-10T09:54:19.461Z,7.03
2022-10-10T09:56:55.472Z,7.03
2022-10-10T09:59:56.350Z,6.88
2022-10-10T10:02:28.408Z,8.25
2022-10-10T10:04:57.835Z,8.15
2022-10-10T10:07:29.394Z,8.10
2022-10-10T10:10:16.272Z,10.07
2022-10-10T10:12:45.827Z,6.82
2022-10-10T10:15:22.032Z,8.85
2022-10-10T10:18:11.706Z,6.40
2022-10-10T10:20:45.342Z,7.53
2022-10-10T10:23:34.322Z,7.60
2022-10-10T10:26:16.462Z,6.55
2022-10-10T10:28:48.825Z,7.60
2022-10-10T10:31:44.813Z,7.43
2022-10-10T10:34:57.882Z,7.70
2022-10-10T10:37:43.619Z,6.88
2022-10-10T10:40:36.244Z,5.90
2022-10-10T10:43:35.655Z,7.25
2022-10-10T10:46:14.290Z,6.30
2022-10-10T10:48:54.406Z,5.88
2022-10-10T10:51:55.120Z,5.43
2022-10-10T10:54:48.228Z,7.15
2022-10-10T10:57:45.800Z,9.65
2022-10-10T11:01:20.976Z,6.63
2022-10-10T11:05:21.054Z,8.68
2022-10-10T11:06:32.083Z,7.25
2022-10-10T11:12:42.980Z,5.70
2022-10-10T11:15:17.767Z,7.18
2022-10-10T11:17:52.834Z,6.03
2022-10-10T11:20:27.859Z,6.40
2022-10-10T11:23:08.682Z,5.05
2022-10-10T11:25:52.506Z,6.68
2022-10-10T11:28:27.870Z,7.45
2022-10-10T11:31:10.166Z,4.65
2022-10-10T11:33:48.598Z,6.53
2022-10-10T11:36:21.042Z,6.05
2022-10-10T11:38:57.443Z,5.75
2022-10-10T11:41:33.943Z,6.00
2022-10-10T11:44:09.718Z,5.93
2022-10-10T11:46:43.320Z,5.13
2022-10-10T11:49:26.594Z,5.43
2022-10-10T11:52:33.545Z,5.10
2022-10-10T11:55:14.451Z,5.15
2022-10-10T11:57:49.984Z,5.45
2022-10-10T12:00:22.378Z,4.85
2022-10-10T12:02:53.196Z,4.93
2022-10-10T12:05:39.568Z,9.02
2022-10-10T12:08:27.293Z,4.13
2022-10-10T12:11:03.504Z,4.10
2022-10-10T12:13:38.148Z,4.45
2022-10-10T12:16:24.046Z,4.20
2022-10-10T12:19:01.283Z,4.75
2022-10-10T12:21:50.128Z,3.85
2022-10-10T12:24:23.285Z,4.18
2022-10-10T12:27:27.212Z,4.47
2022-10-10T12:30:30.709Z,3.65
2022-10-10T12:33:08.051Z,5.50
2022-10-10T12:35:47.434Z,4.70
2022-10-10T12:38:21.725Z,4.47
2022-10-10T12:41:13.120Z,7.85
2022-10-10T12:44:11.200Z,7.47
2022-10-10T12:46:44.003Z,4.53
2022-10-10T12:49:24.144Z,4.30
2022-10-10T12:52:09.636Z,7.40
2022-10-10T12:54:42.397Z,4.70
2022-10-10T12:59:50.407Z,4.72
2022-10-10T13:02:23.539Z,4.25
2022-10-10T13:04:54.293Z,6.18
2022-10-10T13:07:25.601Z,4.32
2022-10-10T13:09:56.155Z,6.00
2022-10-10T13:12:31.862Z,5.32
2022-10-10T13:15:04.206Z,8.38
2022-10-10T13:17:42.661Z,4.63
2022-10-10T13:20:34.057Z,5.82
2022-10-10T13:23:06.709Z,5.32
2022-10-10T13:25:39.060Z,5.25
2022-10-10T13:28:18.407Z,7.32
2022-10-10T13:30:48.073Z,4.32
2022-10-10T13:33:20.266Z,4.72
2022-10-10T13:35:50.905Z,14.05
2022-10-10T13:38:24.118Z,7.07
2022-10-10T13:41:07.788Z,5.07
2022-10-10T13:43:45.429Z,4.53
2022-10-10T13:46:24.119Z,3.92
2022-10-10T13:48:59.094Z,5.30
2022-10-10T13:51:44.702Z,4.45
2022-10-10T13:54:44.633Z,7.82
2022-10-10T13:57:17.688Z,8.82
2022-10-10T13:59:49.642Z,4.57
2022-10-10T14:02:25.519Z,6.80
2022-10-10T14:04:56.471Z,5.75
2022-10-10T14:07:26.744Z,3.28
2022-10-10T14:09:57.784Z,6.57
2022-10-10T14:12:30.154Z,7.20
2022-10-10T14:14:59.862Z,5.05
2022-10-10T14:17:31.081Z,7.22
2022-10-10T14:20:14.629Z,4.50
2022-10-10T14:22:44.068Z,7.63
2022-10-10T14:25:17.096Z,5.82
2022-10-10T14:27:50.850Z,5.80
2022-10-10T14:30:22.270Z,5.82
2022-10-10T14:32:57.724Z,5.35
2022-10-10T14:35:36.440Z,5.28
2022-10-10T14:38:07.422Z,4.40
2022-10-10T14:40:57.588Z,8.45
2022-10-10T14:43:32.568Z,4.68
2022-10-10T14:46:19.650Z,5.70
2022-10-10T14:48:48.035Z,7.10
2022-10-10T14:51:34.503Z,7.07
2022-10-10T14:54:11.864Z,6.43
2022-10-10T14:57:07.062Z,7.75
2022-10-10T14:59:45.936Z,7.18
2022-10-10T15:02:17.156Z,5.15
2022-10-10T15:04:45.072Z,6.50
2022-10-10T15:07:15.542Z,11.70
2022-10-10T15:10:02.598Z,7.43
2022-10-10T15:12:32.417Z,6.00
2022-10-10T15:15:00.542Z,4.38
2022-10-10T15:17:30.459Z,4.95
2022-10-10T15:19:58.346Z,6.28
2022-10-10T15:22:28.856Z,8.70
2022-10-10T15:24:56.797Z,7.10
2022-10-10T15:27:25.017Z,4.07
2022-10-10T15:29:52.967Z,4.97
2022-10-10T15:32:21.323Z,9.15
2022-10-10T15:34:49.924Z,6.78
2022-10-10T15:37:18.254Z,3.88
2022-10-10T15:39:47.980Z,6.35
2022-10-10T15:42:22.410Z,7.45
2022-10-10T15:44:52.079Z,6.63
2022-10-10T15:47:20.558Z,5.97
2022-10-10T15:49:49.162Z,6.55
2022-10-10T15:52:17.513Z,8.77
2022-10-10T15:54:48.891Z,8.90
2022-10-10T15:57:18.842Z,7.50
2022-10-10T15:59:47.259Z,5.95
2022-10-10T16:02:15.452Z,6.35
2022-10-10T16:04:44.244Z,6.80
2022-10-10T16:07:25.899Z,10.05
2022-10-10T16:10:01.071Z,7.25
2022-10-10T16:12:29.287Z,6.95
2022-10-10T16:14:57.148Z,5.78
2022-10-10T16:17:25.401Z,6.32
2022-10-10T16:19:53.289Z,6.72
2022-10-10T16:22:21.402Z,12.25
2022-10-10T16:25:10.301Z,6.80
2022-10-10T16:27:39.538Z,10.75
2022-10-10T16:30:17.533Z,7.78
2022-10-10T16:32:45.428Z,6.88
2022-10-10T16:35:13.347Z,9.23
2022-10-10T16:37:41.320Z,10.18
2022-10-10T16:40:10.279Z,12.88
2022-10-10T16:42:39.612Z,8.00
2022-10-10T16:45:09.679Z,10.57
2022-10-10T16:47:37.996Z,9.95
2022-10-10T16:50:07.719Z,10.57
2022-10-10T16:52:40.466Z,12.27
2022-10-10T16:55:09.460Z,8.88
2022-10-10T16:57:39.537Z,10.82
2022-10-10T17:00:11.306Z,9.82
2022-10-10T17:02:42.260Z,9.98
2022-10-10T17:05:12.096Z,12.73
2022-10-10T17:07:40.134Z,12.77
2022-10-10T17:10:08.828Z,14.10
2022-10-10T17:12:36.796Z,14.30
2022-10-10T17:15:07.368Z,12.68
2022-10-10T17:17:36.260Z,13.60
2022-10-10T17:20:05.174Z,14.13
2022-10-10T17:22:33.249Z,15.90
2022-10-10T17:25:01.396Z,20.52
2022-10-10T17:27:29.599Z,13.50
2022-10-10T17:29:57.457Z,13.27
2022-10-10T17:32:27.132Z,11.35
2022-10-10T17:34:55.929Z,10.32
2022-10-10T17:37:25.153Z,12.60
2022-10-10T17:39:55.511Z,16.92
2022-10-10T17:42:23.692Z,14.13
2022-10-10T17:44:56.190Z,10.50
2022-10-10T17:47:26.951Z,14.07
2022-10-10T17:49:57.165Z,10.55
2022-10-10T17:52:26.070Z,10.18
2022-10-10T17:54:55.022Z,10.73
2022-10-10T17:57:24.804Z,16.48
2022-10-10T17:59:53.492Z,8.50
2022-10-10T18:02:21.892Z,9.05
2022-10-10T18:04:52.334Z,14.13
2022-10-10T18:07:20.513Z,10.10
2022-10-10T18:09:52.732Z,10.63
2022-10-10T18:12:22.871Z,9.73
2022-10-10T18:14:51.191Z,11.77
2022-10-10T18:17:21.642Z,9.05
2022-10-10T18:19:52.660Z,10.50
2022-10-10T18:22:21.215Z,11.13
2022-10-10T18:24:49.166Z,8.85
2022-10-10T18:27:17.393Z,11.15
2022-10-10T18:29:45.327Z,7.93
2022-10-10T18:32:13.629Z,11.27
2022-10-10T18:34:42.347Z,10.73
2022-10-10T18:37:12.199Z,7.88
2022-10-10T18:39:41.887Z,7.53
2022-10-10T18:42:10.759Z,9.60
2022-10-10T18:44:38.663Z,10.10
2022-10-10T18:47:07.589Z,11.93
2022-10-10T18:49:35.764Z,10.10
2022-10-10T18:52:04.122Z,12.73
2022-10-10T18:54:35.599Z,9.70
2022-10-10T18:57:03.851Z,15.02
2022-10-10T18:59:32.741Z,14.13
2022-10-10T19:02:01.259Z,13.38
2022-10-10T19:04:29.511Z,14.88
2022-10-10T19:07:02.175Z,14.43
2022-10-10T19:09:30.812Z,14.27
2022-10-10T19:12:00.815Z,17.08
2022-10-10T19:14:29.037Z,11.38
2022-10-10T19:16:57.290Z,13.20
2022-10-10T19:19:25.423Z,29.77
2022-10-10T19:21:53.664Z,29.63
2022-10-10T19:24:22.381Z,23.48
2022-10-10T19:26:53.565Z,32.92
2022-10-10T19:29:23.727Z,17.20
2022-10-10T19:31:52.543Z,17.90
2022-10-10T19:34:21.995Z,18.90
2022-10-10T19:36:50.551Z,12.38
2022-10-10T19:39:18.603Z,11.43
2022-10-10T19:41:46.613Z,12.00
2022-10-10T19:44:14.490Z,11.43
2022-10-10T19:46:44.264Z,11.20
2022-10-10T19:49:12.634Z,11.43
2022-10-10T19:51:42.459Z,10.52
2022-10-10T19:54:10.884Z,9.73
2022-10-10T19:56:39.144Z,9.38
2022-10-10T19:59:07.739Z,8.35
2022-10-10T20:01:35.747Z,12.55
2022-10-10T20:04:05.418Z,10.75
2022-10-10T20:06:34.552Z,7.82
2022-10-10T20:09:10.426Z,8.40
2022-10-10T20:11:47.849Z,9.77
2022-10-10T20:14:20.311Z,5.78
2022-10-10T20:16:51.412Z,8.68
2022-10-10T20:19:21.326Z,7.57
2022-10-10T20:21:51.377Z,8.70
2022-10-10T20:24:22.714Z,7.47
2022-10-10T20:26:51.196Z,7.75
2022-10-10T20:29:20.811Z,6.97
2022-10-10T20:31:49.751Z,5.85
2022-10-10T20:34:21.821Z,8.88
2022-10-10T20:36:53.458Z,10.00
2022-10-10T20:39:21.730Z,7.07
2022-10-10T20:41:51.856Z,8.27
2022-10-10T20:44:20.144Z,8.70
2022-10-10T20:46:52.241Z,8.27
2022-10-10T20:49:24.708Z,8.93
2022-10-10T20:51:54.451Z,9.65
2022-10-10T20:54:24.669Z,8.98
2022-10-10T20:56:53.380Z,9.05
2022-10-10T20:59:24.423Z,13.00
2022-10-10T21:01:53.783Z,15.35
2022-10-10T21:04:32.794Z,8.13
2022-10-10T21:07:04.179Z,9.73
2022-10-10T21:09:32.743Z,10.82
2022-10-10T21:12:02.450Z,9.18
2022-10-10T21:14:32.385Z,9.18
2022-10-10T21:17:10.864Z,7.32
2022-10-10T21:19:41.305Z,8.68
2022-10-10T21:22:09.809Z,12.98
2022-10-10T21:24:38.370Z,9.45
2022-10-10T21:27:06.774Z,10.15
2022-10-10T21:29:35.131Z,9.05
2022-10-10T21:32:04.005Z,13.85
2022-10-10T21:34:32.400Z,8.85
2022-10-10T21:37:03.413Z,15.15
2022-10-10T21:39:31.861Z,13.35
2022-10-10T21:42:00.216Z,10.05
2022-10-10T21:44:28.532Z,11.15
2022-10-10T21:46:59.812Z,10.43
2022-10-10T21:49:28.420Z,9.30
2022-10-10T21:51:56.801Z,13.50
2022-10-10T21:54:34.134Z,8.63
2022-10-10T21:57:02.691Z,11.63
2022-10-10T21:59:33.124Z,9.75
2022-10-10T22:02:01.574Z,7.70
2022-10-10T22:04:29.652Z,11.02
2022-10-10T22:06:58.040Z,12.27
2022-10-10T22:09:29.090Z,12.60
2022-10-10T22:11:58.488Z,11.88
2022-10-10T22:14:26.757Z,11.77
2022-10-10T22:16:56.307Z,11.73
2022-10-10T22:19:24.988Z,10.48
2022-10-10T22:21:54.325Z,11.02
2022-10-10T22:24:22.564Z,10.25
2022-10-10T22:26:52.107Z,13.30
2022-10-10T22:29:20.247Z,14.65
2022-10-10T22:31:48.830Z,14.07
2022-10-10T22:34:17.017Z,12.90
2022-10-10T22:36:45.532Z,12.48
2022-10-10T22:39:15.442Z,11.30
2022-10-10T22:41:44.134Z,12.43
2022-10-10T22:44:14.815Z,8.52
2022-10-10T22:46:43.335Z,11.90
2022-10-10T22:49:11.425Z,9.68
2022-10-10T22:51:39.700Z,14.00
2022-10-10T22:54:08.257Z,10.48
2022-10-10T22:56:36.616Z,14.43
2022-10-10T22:59:04.955Z,12.95
2022-10-10T23:01:36.935Z,11.68
2022-10-10T23:04:10.498Z,7.75
2022-10-10T23:06:39.222Z,9.57
2022-10-10T23:09:08.354Z,12.95
2022-10-10T23:11:38.468Z,13.77
2022-10-10T23:14:07.359Z,12.32
2022-10-10T23:16:40.690Z,11.18
2022-10-10T23:19:09.573Z,10.55
2022-10-10T23:21:38.154Z,10.05
2022-10-10T23:24:07.424Z,11.20
2022-10-10T23:26:36.006Z,12.13
2022-10-10T23:29:04.657Z,12.00
2022-10-10T23:31:33.682Z,9.77
2022-10-10T23:34:03.880Z,11.82
2022-10-10T23:36:32.399Z,12.80
2022-10-10T23:39:00.983Z,9.70
2022-10-10T23:41:30.022Z,12.50
2022-10-10T23:44:00.443Z,10.15
2022-10-10T23:46:28.996Z,9.40
2022-10-10T23:48:59.148Z,10.63
2022-10-10T23:51:29.803Z,12.18
2022-10-10T23:54:05.883Z,11.77
2022-10-10T23:56:35.211Z,7.88
2022-10-10T23:59:03.342Z,11.02
